Terminal Aerodrome Forecast
Issued by NWS Wilmington, OH

Current Version | Previous Version | Graphics & Text | Print | Product List | Glossary On
Versions: 1 2 3 4 5 6 7 8 9 10 11 12 13 14 15 16 17 18 19 20 21 22 23 24
000
FTUS41 KILN 080737 AAB
TAFILN
TAF AMD
KILN 080737Z 0808/0906 26010KT P6SM -RA BKN050 OVC120
     FM081300 27006KT P6SM BKN040 OVC100
     FM081900 27010KT 5SM -SHRA BR OVC025
     FM090200 27010KT P6SM -SN BKN015 OVC025=

USA.gov is the U.S. government's official web portal to all federal, state and local government web resources and services.